Time;durP1;ratioP1;P1;durP2;ratioP2;P2;SDS_P1;SDS_P2;PMS_P1;PMS_P2;Temp;Humidity;BMP_temperature;BMP_pressure;BME280_temperature;BME280_humidity;BME280_pressure;Samples;Min_cycle;Max_cycle;Signal;HPM_P1;HPM_P2
2023/06/03 00:02:18;;;;;;;9.05;5.10;;;;;;;-143.21;80.08;71663.72;5070542;28;20200;-76
2023/06/03 00:04:46;;;;;;;9.88;4.50;;;;;;;-143.21;80.31;71657.75;5069979;28;20229;-76
2023/06/03 00:07:13;;;;;;;6.25;4.78;;;;;;;-143.21;80.72;71651.81;5069853;28;20252;-76
2023/06/03 00:09:39;;;;;;;8.33;4.83;;;;;;;-143.21;80.85;71651.81;5069829;28;20193;-76
2023/06/03 00:12:07;;;;;;;7.03;4.90;;;;;;;-143.21;81.04;71653.78;5069172;28;20266;-75
2023/06/03 00:14:34;;;;;;;8.38;5.38;;;;;;;-143.21;80.46;71655.78;5069637;28;20197;-75
2023/06/03 00:17:02;;;;;;;6.03;5.18;;;;;;;-143.21;81.21;71657.75;5069442;28;20202;-75
2023/06/03 00:19:28;;;;;;;6.72;5.22;;;;;;;-143.21;81.95;71661.72;5070330;28;20193;-76
2023/06/03 00:21:55;;;;;;;7.57;4.87;;;;;;;-143.21;82.43;71657.75;5072257;28;20208;-84
2023/06/03 00:24:23;;;;;;;6.30;5.15;;;;;;;-143.21;81.97;71647.84;5072576;28;20217;-84
2023/06/03 00:26:50;;;;;;;6.00;5.10;;;;;;;-143.21;82.49;71635.94;5072991;28;20284;-84
2023/06/03 00:29:17;;;;;;;5.27;4.60;;;;;;;-143.21;82.37;71639.91;5076176;28;20186;-83
2023/06/03 00:31:44;;;;;;;9.10;5.18;;;;;;;-143.21;82.59;71641.91;5072349;28;20198;-84
2023/06/03 00:34:12;;;;;;;7.25;5.22;;;;;;;-143.21;82.90;71645.88;5072990;28;20209;-84
2023/06/03 00:36:39;;;;;;;6.53;5.30;;;;;;;-143.21;83.23;71651.81;5071590;28;20672;-86
2023/06/03 00:39:07;;;;;;;7.40;5.00;;;;;;;-143.21;83.91;71649.81;5072322;28;20299;-85
2023/06/03 00:41:34;;;;;;;6.50;4.80;;;;;;;-143.21;84.26;71659.75;5071733;28;20297;-85
2023/06/03 00:44:01;;;;;;;10.75;5.50;;;;;;;-143.21;84.49;71667.66;5071540;28;20228;-86
2023/06/03 00:46:28;;;;;;;9.40;4.93;;;;;;;-143.21;84.62;71669.66;5070496;28;20255;-85
2023/06/03 00:48:56;;;;;;;7.23;5.33;;;;;;;-143.21;85.01;71673.63;5069927;28;20194;-85
2023/06/03 00:51:24;;;;;;;9.55;5.75;;;;;;;-143.21;85.22;71673.63;5071104;28;20575;-85
2023/06/03 00:53:51;;;;;;;6.20;5.05;;;;;;;-143.21;85.16;71675.59;5071387;28;20713;-85
2023/06/03 00:56:18;;;;;;;8.20;5.13;;;;;;;-143.21;85.09;71675.59;5072139;28;20288;-85
2023/06/03 00:58:45;;;;;;;11.27;5.60;;;;;;;-143.21;84.59;71677.59;5071642;28;20721;-85
2023/06/03 01:01:13;;;;;;;8.53;5.90;;;;;;;-143.21;85.49;71677.59;5068188;28;20676;-85
2023/06/03 01:03:42;;;;;;;10.60;5.70;;;;;;;-143.21;86.42;71681.56;5071657;28;20217;-86
2023/06/03 01:06:16;;;;;;;11.50;5.60;;;;;;;-143.21;86.84;71677.59;5071540;28;20237;-86
2023/06/03 01:08:54;;;;;;;6.88;5.57;;;;;;;-143.21;86.37;71677.59;5068362;28;20192;-85
2023/06/03 01:11:30;;;;;;;10.43;5.67;;;;;;;-143.21;86.93;71679.56;5069001;28;20663;-84
2023/06/03 01:14:05;;;;;;;9.07;5.90;;;;;;;-143.21;87.19;71675.59;5071000;28;20216;-84
2023/06/03 01:16:34;;;;;;;11.93;6.83;;;;;;;-143.21;85.52;71671.63;5070860;28;20590;-83
2023/06/03 01:19:02;;;;;;;10.37;6.47;;;;;;;-143.21;85.07;71681.56;5070679;28;20335;-84
2023/06/03 01:21:34;;;;;;;11.13;6.60;;;;;;;-143.21;85.95;71681.56;5071156;28;20202;-84
2023/06/03 01:24:02;;;;;;;8.70;6.27;;;;;;;-143.21;86.62;71687.50;5070719;28;20212;-83
2023/06/03 01:26:29;;;;;;;10.77;6.87;;;;;;;-143.21;86.81;71693.44;5070275;28;20696;-83
2023/06/03 01:28:56;;;;;;;10.53;6.60;;;;;;;-143.21;86.70;71701.38;5069626;28;20636;-83
2023/06/03 01:31:23;;;;;;;9.00;6.07;;;;;;;-143.21;85.19;71709.31;5070219;28;20201;-83
2023/06/03 01:33:50;;;;;;;8.87;5.70;;;;;;;-143.21;85.68;71735.09;5073163;28;20205;-83
2023/06/03 01:36:17;;;;;;;6.47;4.90;;;;;;;-143.21;86.34;71750.94;5071556;28;20613;-82
2023/06/03 01:38:44;;;;;;;8.67;5.27;;;;;;;-143.21;86.87;71766.81;5071893;28;20220;-83
2023/06/03 01:41:13;;;;;;;9.87;5.17;;;;;;;-143.21;87.43;71772.75;5068557;28;20194;-83
2023/06/03 01:43:40;;;;;;;7.80;5.07;;;;;;;-143.21;87.47;71762.84;5068553;28;20249;-83
2023/06/03 01:46:07;;;;;;;6.73;5.33;;;;;;;-143.21;87.27;71754.91;5079326;28;20668;-83
2023/06/03 01:48:34;;;;;;;6.87;5.23;;;;;;;-143.21;87.00;71756.91;5088691;28;20257;-83
2023/06/03 01:51:02;;;;;;;7.30;5.07;;;;;;;-143.21;87.32;71756.91;5079497;28;20190;-85
2023/06/03 01:53:28;;;;;;;6.97;4.80;;;;;;;-143.21;87.19;71752.94;5070907;28;20228;-85
2023/06/03 01:55:55;;;;;;;6.07;5.13;;;;;;;-143.21;87.30;71760.88;5070850;28;20205;-84
2023/06/03 01:58:23;;;;;;;7.80;5.00;;;;;;;-143.21;87.49;71762.84;5070273;28;20198;-85
2023/06/03 02:00:50;;;;;;;10.07;5.90;;;;;;;-143.21;87.66;71764.81;5070403;28;20213;-84
2023/06/03 02:03:17;;;;;;;7.77;5.10;;;;;;;-143.21;87.46;71762.84;5069755;28;20193;-85
2023/06/03 02:05:44;;;;;;;6.30;4.90;;;;;;;-143.21;87.44;71772.75;5068627;28;20228;-84
2023/06/03 02:08:11;;;;;;;6.73;5.20;;;;;;;-143.21;87.76;71766.81;5069684;28;20194;-83
2023/06/03 02:10:38;;;;;;;5.50;4.97;;;;;;;-143.21;88.29;71774.75;5070551;28;20626;-83
2023/06/03 02:13:04;;;;;;;11.10;5.33;;;;;;;-143.21;88.07;71774.75;5070657;28;20235;-83
2023/06/03 02:15:32;;;;;;;6.23;4.77;;;;;;;-143.21;88.51;71780.69;5070751;28;20201;-85
2023/06/03 02:17:59;;;;;;;8.20;5.70;;;;;;;-143.21;89.02;71778.72;5077855;28;20216;-85
2023/06/03 02:20:26;;;;;;;7.80;5.60;;;;;;;-143.21;88.90;71778.72;5087372;28;20189;-84
2023/06/03 02:22:53;;;;;;;8.83;5.90;;;;;;;-143.21;89.28;71778.72;5070714;28;20197;-84
2023/06/03 02:25:21;;;;;;;14.37;6.13;;;;;;;-143.21;89.32;71778.72;5070428;28;20231;-87
2023/06/03 02:27:48;;;;;;;8.03;5.47;;;;;;;-143.21;88.77;71782.69;5070155;28;20211;-87
2023/06/03 02:30:15;;;;;;;8.27;5.70;;;;;;;-143.21;88.72;71790.59;5069898;28;20204;-87
2023/06/03 02:32:44;;;;;;;6.73;5.90;;;;;;;-143.21;88.47;71786.63;5068110;28;20604;-84
2023/06/03 02:35:11;;;;;;;7.67;6.00;;;;;;;-143.21;87.96;71786.63;5072483;28;20193;-84
2023/06/03 02:37:37;;;;;;;8.10;5.30;;;;;;;-143.21;88.65;71796.56;5068123;28;20213;-84
2023/06/03 02:40:05;;;;;;;9.73;6.30;;;;;;;-143.21;88.90;71800.53;5067201;28;20204;-84
2023/06/03 02:42:32;;;;;;;6.70;5.83;;;;;;;-143.21;89.14;71792.59;5067076;28;20198;-84
2023/06/03 02:44:59;;;;;;;9.47;6.30;;;;;;;-143.21;88.95;71800.53;5067490;28;20305;-83
2023/06/03 02:47:26;;;;;;;10.33;6.73;;;;;;;-143.21;89.02;71816.38;5066536;28;20201;-82
2023/06/03 02:49:55;;;;;;;8.57;6.60;;;;;;;-143.21;89.37;71816.38;5065882;28;20205;-82
2023/06/03 02:52:22;;;;;;;9.23;6.00;;;;;;;-143.21;88.19;71816.38;5069427;28;20287;-83
2023/06/03 02:54:49;;;;;;;9.27;5.30;;;;;;;-143.21;87.79;71814.41;5069371;28;20197;-81
2023/06/03 02:57:16;;;;;;;8.23;6.03;;;;;;;-143.21;87.82;71820.34;5068997;28;20194;-81
2023/06/03 02:59:43;;;;;;;9.67;6.13;;;;;;;-143.21;87.67;71818.38;5068523;28;20197;-81
2023/06/03 03:02:10;;;;;;;10.80;6.50;;;;;;;-143.21;87.76;71828.28;5068871;28;20890;-82
2023/06/03 03:04:37;;;;;;;8.47;6.53;;;;;;;-143.21;87.63;71830.25;5069024;28;20623;-82
2023/06/03 03:07:07;;;;;;;11.30;6.53;;;;;;;-143.21;87.99;71828.28;5067684;28;20743;-83
2023/06/03 03:09:34;;;;;;;12.27;6.60;;;;;;;-143.21;88.12;71830.25;5069176;28;20205;-84
2023/06/03 03:12:01;;;;;;;11.80;6.90;;;;;;;-143.21;88.24;71836.22;5068584;28;20213;-83
2023/06/03 03:14:27;;;;;;;9.27;6.53;;;;;;;-143.21;88.61;71834.22;5068327;28;20752;-82
2023/06/03 03:16:54;;;;;;;13.70;5.80;;;;;;;-143.21;88.61;71836.22;5069084;28;20238;-82
2023/06/03 03:19:21;;;;;;;8.10;5.80;;;;;;;-143.21;88.36;71832.25;5069271;28;20634;-83
2023/06/03 03:21:48;;;;;;;9.73;5.97;;;;;;;-143.21;87.58;71830.25;5069062;28;20290;-81
2023/06/03 03:24:17;;;;;;;9.60;6.40;;;;;;;-143.21;87.70;71820.34;5066266;28;20232;-82
2023/06/03 03:26:44;;;;;;;11.00;6.53;;;;;;;-143.21;87.98;71820.34;5060888;28;20209;-81
2023/06/03 03:29:11;;;;;;;12.03;6.37;;;;;;;-143.21;87.75;71822.34;5065395;28;20212;-83
2023/06/03 03:31:38;;;;;;;12.87;7.00;;;;;;;-143.21;87.69;71822.34;5067529;28;20204;-82
2023/06/03 03:34:07;;;;;;;15.93;7.30;;;;;;;-143.21;87.40;71814.41;5070174;28;20929;-82
2023/06/03 03:36:36;;;;;;;11.37;6.70;;;;;;;-143.21;88.06;71816.38;5071721;28;20282;-75
2023/06/03 03:39:05;;;;;;;11.37;7.00;;;;;;;-143.21;88.47;71812.41;5071205;28;20200;-75
2023/06/03 03:41:33;;;;;;;14.67;7.20;;;;;;;-143.21;88.59;71804.47;5070021;28;20216;-75
2023/06/03 03:44:00;;;;;;;10.63;6.93;;;;;;;-143.21;88.64;71804.47;5070893;28;20197;-75
2023/06/03 03:46:27;;;;;;;9.17;6.80;;;;;;;-143.21;87.77;71798.53;5069446;28;20201;-75
2023/06/03 03:48:53;;;;;;;9.77;6.77;;;;;;;-143.21;87.73;71794.56;5071551;28;20204;-75
2023/06/03 03:51:20;;;;;;;15.10;7.90;;;;;;;-143.21;87.23;71790.59;5070372;28;20213;-76
2023/06/03 03:53:48;;;;;;;11.93;7.03;;;;;;;-143.21;87.38;71800.53;5067811;28;20194;-75
2023/06/03 03:56:18;;;;;;;17.40;8.30;;;;;;;-143.21;88.19;71806.47;5070633;28;20247;-75
2023/06/03 03:58:48;;;;;;;13.50;7.90;;;;;;;-143.21;88.70;71802.50;5070361;28;20286;-76
2023/06/03 04:01:18;;;;;;;14.20;7.30;;;;;;;-143.21;88.37;71804.47;5069101;28;20239;-76
2023/06/03 04:03:46;;;;;;;11.47;7.20;;;;;;;-143.21;86.84;71802.50;5071016;28;20251;-76
2023/06/03 04:06:14;;;;;;;14.43;7.53;;;;;;;-143.21;85.04;71816.38;5070456;28;20224;-76
2023/06/03 04:08:45;;;;;;;14.93;7.77;;;;;;;-143.21;85.35;71826.28;5069244;28;20276;-75
2023/06/03 04:11:19;;;;;;;10.87;7.37;;;;;;;-143.21;85.88;71830.25;5063790;28;20208;-76
2023/06/03 04:13:48;;;;;;;14.20;7.47;;;;;;;-143.21;86.62;71826.28;5069793;28;20199;-76
2023/06/03 04:16:45;;;;;;;14.43;8.10;;;;;;;-143.21;86.54;71814.41;5068523;28;20202;-75
2023/06/03 04:19:15;;;;;;;17.50;9.03;;;;;;;-143.21;86.33;71812.41;5068238;28;20217;-76
2023/06/03 04:21:42;;;;;;;18.73;9.50;;;;;;;-143.21;86.14;71802.50;5069815;28;20201;-77
2023/06/03 04:24:09;;;;;;;12.83;8.37;;;;;;;-143.21;85.49;71804.47;5069970;28;20672;-77
2023/06/03 04:26:36;;;;;;;13.30;7.63;;;;;;;-143.21;85.50;71798.53;5069886;28;20274;-76
2023/06/03 04:29:05;;;;;;;11.60;8.43;;;;;;;-143.21;85.59;71796.56;5069550;28;20233;-76
2023/06/03 04:31:31;;;;;;;15.67;9.97;;;;;;;-143.21;85.85;71794.56;5068361;28;20554;-76
2023/06/03 04:33:58;;;;;;;18.40;9.70;;;;;;;-143.21;85.64;71788.63;5070188;28;20256;-76
2023/06/03 04:36:25;;;;;;;13.10;8.83;;;;;;;-143.21;85.58;71782.69;5069698;28;20611;-76
2023/06/03 04:38:52;;;;;;;13.77;8.80;;;;;;;-143.21;85.65;71778.72;5069946;28;20671;-76
2023/06/03 04:41:19;;;;;;;12.93;7.70;;;;;;;-143.21;85.65;71770.78;5069830;28;20635;-76
2023/06/03 04:43:46;;;;;;;13.70;8.37;;;;;;;-143.21;85.72;71772.75;5069717;28;20198;-77
2023/06/03 04:46:18;;;;;;;11.10;8.13;;;;;;;-143.21;85.77;71768.78;5069862;28;20241;-77
2023/06/03 04:48:45;;;;;;;15.37;7.83;;;;;;;-143.21;84.76;71764.81;5069833;28;20198;-77
2023/06/03 04:51:13;;;;;;;12.53;7.80;;;;;;;-143.21;84.89;71768.78;5068380;28;20193;-77
2023/06/03 04:53:41;;;;;;;11.07;7.70;;;;;;;-143.21;84.89;71772.75;5069941;28;20197;-76
2023/06/03 04:56:08;;;;;;;13.20;8.53;;;;;;;-143.21;84.00;71764.81;5069011;28;20627;-77
2023/06/03 04:58:36;;;;;;;14.40;8.47;;;;;;;-143.21;84.57;71760.88;5069930;28;20204;-77
2023/06/03 05:01:04;;;;;;;13.80;8.20;;;;;;;-143.21;84.62;71756.91;5069132;28;20212;-77
2023/06/03 05:03:35;;;;;;;13.23;7.90;;;;;;;-143.21;84.34;71750.94;5069430;28;20221;-76
2023/06/03 05:06:04;;;;;;;15.53;8.07;;;;;;;-143.21;84.40;71750.94;5069809;28;20555;-77
2023/06/03 05:08:30;;;;;;;9.80;7.33;;;;;;;-143.21;84.20;71745.00;5064813;28;20200;-77
2023/06/03 05:10:57;;;;;;;20.77;7.60;;;;;;;-143.21;83.13;71746.97;5065520;28;20703;-76
2023/06/03 05:13:25;;;;;;;14.75;7.70;;;;;;;-143.21;82.36;71739.06;5068576;28;20190;-77
2023/06/03 05:15:52;;;;;;;16.73;7.63;;;;;;;-143.21;82.39;71727.16;5067912;28;20567;-76
2023/06/03 05:18:19;;;;;;;10.23;7.67;;;;;;;-143.21;82.52;71721.22;5066620;28;20201;-76
2023/06/03 05:20:49;;;;;;;11.15;7.55;;;;;;;-143.21;81.76;71721.22;5068340;28;20347;-77
2023/06/03 05:23:17;;;;;;;14.30;7.67;;;;;;;-143.21;81.71;71717.25;5068198;28;21011;-76
2023/06/03 05:25:46;;;;;;;15.70;7.57;;;;;;;-143.21;81.65;71725.16;5068063;28;20225;-76
2023/06/03 05:28:12;;;;;;;9.23;7.37;;;;;;;-143.21;81.72;71725.16;5068757;28;20193;-77
2023/06/03 05:30:39;;;;;;;11.27;7.57;;;;;;;-143.21;81.73;71723.19;5066880;28;20194;-75
2023/06/03 05:33:06;;;;;;;10.57;7.72;;;;;;;-143.21;81.94;71723.19;5068326;28;20259;-77
2023/06/03 05:35:33;;;;;;;15.40;8.10;;;;;;;-143.21;81.82;71723.19;5067939;28;20308;-77
2023/06/03 05:38:01;;;;;;;12.83;8.10;;;;;;;-143.21;81.44;71713.28;5048036;28;20266;-77
2023/06/03 05:40:28;;;;;;;13.33;7.77;;;;;;;-143.21;81.64;71707.31;5052124;28;20202;-77
2023/06/03 05:42:59;;;;;;;15.27;7.53;;;;;;;-143.21;81.94;71703.34;5065740;28;20538;-77
2023/06/03 05:45:25;;;;;;;14.00;8.30;;;;;;;-143.21;81.46;71697.41;5068182;28;20202;-76
2023/06/03 05:47:52;;;;;;;13.60;7.83;;;;;;;-143.21;80.36;71693.44;5066594;28;20198;-75
2023/06/03 05:50:19;;;;;;;12.87;7.57;;;;;;;-143.21;80.70;71697.41;5067485;28;20287;-76
2023/06/03 05:52:46;;;;;;;10.50;8.00;;;;;;;-143.21;80.74;71689.47;5066719;28;20193;-76
2023/06/03 05:55:14;;;;;;;11.43;7.97;;;;;;;-143.21;80.90;71677.59;5068279;28;20186;-77
2023/06/03 05:57:41;;;;;;;13.93;8.15;;;;;;;-143.21;80.87;71673.63;5067884;28;20215;-76
2023/06/03 06:00:09;;;;;;;11.20;8.20;;;;;;;-143.21;81.42;71649.81;5068079;28;20290;-77
2023/06/03 06:02:36;;;;;;;12.73;6.97;;;;;;;-143.21;79.93;71637.94;5064343;28;21132;-77
2023/06/03 06:05:03;;;;;;;12.02;6.90;;;;;;;-143.21;78.73;71631.97;5067811;28;20833;-76
2023/06/03 06:07:30;;;;;;;12.60;7.15;;;;;;;-143.21;77.70;71612.16;5066801;28;20221;-75
2023/06/03 06:09:57;;;;;;;11.63;6.50;;;;;;;-143.21;76.67;71614.13;5067272;28;20688;-76
2023/06/03 06:12:25;;;;;;;7.85;6.03;;;;;;;-143.21;76.52;71622.06;5065852;28;20205;-75
2023/06/03 06:14:52;;;;;;;8.85;5.78;;;;;;;-143.21;76.54;71610.16;5066903;28;20672;-76
2023/06/03 06:17:20;;;;;;;10.05;6.43;;;;;;;-143.21;76.79;71604.22;5067115;28;20201;-78
2023/06/03 06:19:47;;;;;;;9.13;6.15;;;;;;;-143.21;76.92;71600.25;5067908;28;20198;-78
2023/06/03 06:22:14;;;;;;;8.25;5.97;;;;;;;-143.21;75.41;71602.25;5068423;28;20244;-79
2023/06/03 06:24:42;;;;;;;11.57;6.28;;;;;;;-143.21;76.59;71590.34;5068170;28;20193;-78
2023/06/03 06:27:09;;;;;;;8.30;6.15;;;;;;;-143.21;78.33;71568.53;5067084;28;21035;-79
2023/06/03 06:29:37;;;;;;;11.48;6.38;;;;;;;-143.21;77.95;71556.63;5066996;28;20208;-79
2023/06/03 06:32:04;;;;;;;11.93;6.10;;;;;;;-143.21;77.81;71540.78;5067958;28;20829;-80
2023/06/03 06:34:32;;;;;;;12.40;6.22;;;;;;;-143.21;76.52;71526.91;5068296;28;20194;-79
2023/06/03 06:37:00;;;;;;;8.55;5.72;;;;;;;-143.21;74.27;71520.94;5067173;28;20194;-76
2023/06/03 06:39:48;;;;;;;8.35;5.60;;;;;;;-143.21;73.70;71513.03;5067373;28;20195;-77
2023/06/03 06:42:21;;;;;;;11.82;6.07;;;;;;;-143.21;72.67;71495.19;5067856;28;20589;-77
2023/06/03 06:44:51;;;;;;;10.32;6.28;;;;;;;-143.21;72.70;71477.34;5067361;28;20193;-81
2023/06/03 06:47:22;;;;;;;10.18;5.97;;;;;;;-143.21;72.87;71463.44;5069654;28;20715;-83
2023/06/03 06:49:50;;;;;;;13.00;6.15;;;;;;;-143.21;72.22;71455.53;5069331;28;20229;-84
2023/06/03 06:52:19;;;;;;;11.48;7.05;;;;;;;-143.21;71.55;71453.53;5068877;28;20194;-79
2023/06/03 06:54:46;;;;;;;10.02;6.90;;;;;;;-143.21;71.04;71441.63;5065895;28;20189;-78
2023/06/03 06:57:19;;;;;;;12.05;6.70;;;;;;;-143.21;71.17;71447.59;5065455;28;20271;-78
2023/06/03 06:59:46;;;;;;;9.40;6.13;;;;;;;-143.21;71.00;71443.63;5067149;28;20239;-77
2023/06/03 07:02:14;;;;;;;12.13;6.50;;;;;;;-143.21;70.60;71449.56;5067828;28;20269;-77
2023/06/03 07:04:41;;;;;;;10.82;6.38;;;;;;;-143.21;71.01;71439.66;5066177;28;20541;-76
2023/06/03 07:07:08;;;;;;;12.18;6.72;;;;;;;-143.21;71.24;71431.72;5065724;28;20229;-77
2023/06/03 07:09:35;;;;;;;10.10;6.30;;;;;;;-143.21;69.28;71441.63;5066638;28;20211;-77
2023/06/03 07:12:02;;;;;;;8.60;5.75;;;;;;;-143.21;69.04;71447.59;5067330;28;20201;-77
2023/06/03 07:14:30;;;;;;;8.80;5.85;;;;;;;-143.21;69.98;71445.59;5067084;28;20284;-76
2023/06/03 07:16:57;;;;;;;8.15;5.97;;;;;;;-143.21;69.12;71457.50;5067338;28;20716;-77
2023/06/03 07:19:28;;;;;;;11.05;6.53;;;;;;;-143.21;69.93;71469.41;5067166;28;21066;-77
2023/06/03 07:21:55;;;;;;;8.10;6.03;;;;;;;-143.21;69.45;71461.47;5066490;28;20209;-77
2023/06/03 07:24:21;;;;;;;9.88;5.50;;;;;;;-143.21;69.18;71459.47;5065491;28;20215;-76
2023/06/03 07:26:48;;;;;;;9.10;5.35;;;;;;;-143.21;70.14;71453.53;5066054;28;20220;-77
2023/06/03 07:29:19;;;;;;;8.68;5.25;;;;;;;-143.21;68.84;71445.59;5065729;28;20327;-76
2023/06/03 07:31:46;;;;;;;9.98;5.25;;;;;;;-143.21;69.32;71443.63;5064550;28;20251;-76
2023/06/03 07:34:24;;;;;;;9.43;5.45;;;;;;;-143.21;69.10;71439.66;5063564;28;20197;-76
2023/06/03 07:37:02;;;;;;;8.07;5.75;;;;;;;-143.21;70.08;71435.69;5065751;28;20217;-77
2023/06/03 07:39:29;;;;;;;8.52;4.80;;;;;;;-143.21;70.02;71431.72;5065645;28;20223;-76
2023/06/03 07:41:57;;;;;;;9.40;5.53;;;;;;;-143.21;69.74;71433.72;5066686;28;20189;-76
2023/06/03 07:44:39;;;;;;;7.30;4.80;;;;;;;-143.21;69.32;71435.69;5067446;28;20217;-76
2023/06/03 07:47:06;;;;;;;7.30;5.15;;;;;;;-143.21;69.31;71429.75;5066039;28;20884;-75
2023/06/03 07:49:34;;;;;;;7.45;4.80;;;;;;;-143.21;70.47;71427.75;5066597;28;20783;-75
2023/06/03 07:52:02;;;;;;;6.07;4.90;;;;;;;-143.21;70.05;71417.84;5065328;28;20258;-76
2023/06/03 07:54:29;;;;;;;9.85;5.13;;;;;;;-143.21;69.74;71403.97;5067003;28;20695;-76
2023/06/03 07:57:00;;;;;;;7.93;4.85;;;;;;;-143.21;69.50;71396.03;5066104;28;20186;-76
2023/06/03 07:59:29;;;;;;;6.22;5.10;;;;;;;-143.21;69.47;71392.06;5065773;28;20571;-76
2023/06/03 08:02:03;;;;;;;8.18;4.90;;;;;;;-143.21;69.65;71394.06;5066924;28;20240;-78
2023/06/03 08:04:34;;;;;;;4.30;3.63;;;;;;;-143.21;69.11;71394.06;5066919;28;20200;-77
2023/06/03 08:07:05;;;;;;;5.60;4.50;;;;;;;-143.21;68.46;71390.09;5065073;28;20224;-75
2023/06/03 08:09:38;;;;;;;5.35;4.15;;;;;;;-143.21;68.84;71388.09;5048977;28;20870;-84
2023/06/03 08:12:09;;;;;;;8.50;4.40;;;;;;;-143.21;68.64;71376.22;5065959;28;20197;-81
2023/06/03 08:14:39;;;;;;;8.90;4.78;;;;;;;-143.21;68.37;71368.28;5067582;28;20255;-82
2023/06/03 08:17:10;;;;;;;5.47;4.28;;;;;;;-143.21;68.74;71348.47;5068251;28;20216;-79
2023/06/03 08:19:37;;;;;;;8.18;4.32;;;;;;;-143.21;68.90;71334.59;5066920;28;20244;-83
2023/06/03 08:22:10;;;;;;;5.60;3.95;;;;;;;-143.21;67.79;71324.66;5071165;28;20225;-80
2023/06/03 08:24:37;;;;;;;4.95;4.13;;;;;;;-143.21;67.28;71320.69;5070856;28;20201;-81
2023/06/03 08:27:03;;;;;;;5.20;4.03;;;;;;;-143.21;67.48;71312.78;5069923;28;20310;-80
2023/06/03 08:29:30;;;;;;;7.35;3.70;;;;;;;-143.21;66.18;71312.78;5071593;28;20194;-83
2023/06/03 08:31:57;;;;;;;8.05;3.58;;;;;;;-143.21;67.41;71304.84;5071170;28;20223;-83
2023/06/03 08:34:24;;;;;;;4.85;3.40;;;;;;;-143.21;66.56;71285.03;5071739;28;20227;-79
2023/06/03 08:36:51;;;;;;;4.93;3.40;;;;;;;-143.21;65.17;71281.06;5069200;28;20674;-83
2023/06/03 08:39:19;;;;;;;4.45;3.35;;;;;;;-143.21;64.88;71273.13;5067718;28;20205;-83
2023/06/03 08:41:52;;;;;;;6.25;3.63;;;;;;;-143.21;64.62;71273.13;5067033;28;20194;-83
2023/06/03 08:44:27;;;;;;;5.70;3.53;;;;;;;-143.21;64.32;71253.28;5069881;28;20272;-83
2023/06/03 08:47:04;;;;;;;6.05;3.53;;;;;;;-143.21;62.62;71255.28;5069894;28;20216;-83
2023/06/03 08:49:38;;;;;;;8.23;4.07;;;;;;;-143.21;62.59;71249.34;5071409;28;20659;-83
2023/06/03 08:52:08;;;;;;;4.97;3.50;;;;;;;-143.21;61.35;71245.38;5071527;28;20581;-83
2023/06/03 08:54:38;;;;;;;3.67;3.35;;;;;;;-143.21;62.70;71243.38;5071546;28;20538;-83
2023/06/03 08:57:11;;;;;;;6.45;3.50;;;;;;;-143.21;62.40;71241.41;5070100;28;20190;-83
2023/06/03 08:59:41;;;;;;;3.92;3.45;;;;;;;-143.21;62.20;71245.38;5071256;28;20190;-83
2023/06/03 09:02:10;;;;;;;3.70;3.30;;;;;;;-143.21;62.10;71249.34;5071111;28;20189;-83
2023/06/03 09:04:38;;;;;;;7.13;3.50;;;;;;;-143.21;61.73;71245.38;5071029;28;20209;-83
2023/06/03 09:07:06;;;;;;;6.82;3.45;;;;;;;-143.21;61.38;71245.38;5071225;28;20251;-83
2023/06/03 09:09:36;;;;;;;6.50;3.50;;;;;;;-143.21;62.48;71239.41;5071612;28;20207;-83
2023/06/03 09:12:04;;;;;;;4.88;3.63;;;;;;;-143.21;61.96;71231.50;5070401;28;20621;-84
2023/06/03 09:14:32;;;;;;;4.30;3.63;;;;;;;-143.21;62.42;71215.63;5070854;28;20197;-83
2023/06/03 09:17:01;;;;;;;3.80;3.30;;;;;;;-143.21;62.50;71203.72;5056974;28;20287;-83
2023/06/03 09:19:28;;;;;;;5.80;3.50;;;;;;;-143.21;62.04;71191.84;5071097;28;20197;-83
2023/06/03 09:21:56;;;;;;;7.55;3.65;;;;;;;-143.21;60.10;71177.97;5070906;28;20208;-83
2023/06/03 09:24:27;;;;;;;6.97;4.22;;;;;;;-143.21;59.57;71187.88;5070530;28;20280;-83
2023/06/03 09:26:55;;;;;;;6.35;3.65;;;;;;;-143.21;58.29;71193.81;5070041;28;20221;-83
2023/06/03 09:29:22;;;;;;;5.50;3.42;;;;;;;-143.21;58.34;71211.66;5068583;28;20186;-83
2023/06/03 09:31:49;;;;;;;4.47;3.40;;;;;;;-143.21;57.59;71227.53;5069576;28;20252;-82
2023/06/03 09:34:17;;;;;;;3.53;3.22;;;;;;;-143.21;57.60;71223.56;5070470;28;20205;-83
2023/06/03 09:36:44;;;;;;;3.50;3.10;;;;;;;-143.21;57.37;71201.75;5071166;28;20208;-83
2023/06/03 09:39:16;;;;;;;3.92;3.33;;;;;;;-143.21;57.69;71193.81;5067765;28;20197;-83
2023/06/03 09:41:43;;;;;;;6.55;3.53;;;;;;;-143.21;58.93;71187.88;5067634;28;20185;-83
2023/06/03 09:44:12;;;;;;;5.70;3.88;;;;;;;-143.21;57.79;71168.06;5070792;28;20568;-83
2023/06/03 09:46:39;;;;;;;7.40;3.60;;;;;;;-143.21;57.20;71164.09;5070223;28;20236;-84
2023/06/03 09:49:10;;;;;;;5.55;3.80;;;;;;;-143.21;57.41;71170.03;5071205;28;20595;-83
2023/06/03 09:51:42;;;;;;;7.00;3.47;;;;;;;-143.21;59.15;71174.00;5069978;28;20205;-83
2023/06/03 09:54:11;;;;;;;4.05;3.45;;;;;;;-143.21;58.74;71158.13;5070308;28;20668;-85
2023/06/03 09:56:38;;;;;;;6.38;3.35;;;;;;;-143.21;56.92;71144.25;5070183;28;20236;-84
2023/06/03 09:59:21;;;;;;;5.57;3.58;;;;;;;-143.21;56.66;71120.47;5069937;28;20200;-84
2023/06/03 10:01:49;;;;;;;6.85;3.17;;;;;;;-143.21;56.31;71104.59;5066891;28;20277;-84
2023/06/03 10:04:20;;;;;;;6.22;3.50;;;;;;;-143.21;57.55;71082.81;5067519;28;20194;-84
2023/06/03 10:06:47;;;;;;;3.92;3.30;;;;;;;-143.21;56.53;71051.09;5065379;28;20609;-84
2023/06/03 10:09:22;;;;;;;4.68;3.40;;;;;;;-143.21;56.47;71011.44;5070067;28;20585;-84
2023/06/03 10:11:51;;;;;;;3.78;3.38;;;;;;;-143.21;55.14;70987.66;5067589;28;20200;-83
2023/06/03 10:14:25;;;;;;;4.03;3.30;;;;;;;-143.21;54.71;70951.97;5069448;28;20217;-84
2023/06/03 10:17:06;;;;;;;3.40;3.05;;;;;;;-143.21;55.74;70926.19;5067796;28;20201;-84
2023/06/03 10:19:34;;;;;;;5.65;3.58;;;;;;;-143.21;52.86;70912.31;5069717;28;20382;-84
2023/06/03 10:22:02;;;;;;;5.22;3.30;;;;;;;-143.21;53.08;70896.47;5070090;28;20205;-84
2023/06/03 10:24:30;;;;;;;3.92;3.05;;;;;;;-143.21;51.22;70884.56;5070158;28;20280;-85
2023/06/03 10:26:58;;;;;;;3.35;3.05;;;;;;;-143.21;51.55;70878.63;5070147;28;20225;-83
2023/06/03 10:29:26;;;;;;;3.55;2.75;;;;;;;-143.21;51.74;70876.63;5070232;28;20209;-84
2023/06/03 10:31:54;;;;;;;5.35;3.03;;;;;;;-143.21;52.95;70874.66;5069679;28;20288;-85
2023/06/03 10:34:22;;;;;;;5.97;3.10;;;;;;;-143.21;52.79;70860.78;5069842;28;20258;-83
2023/06/03 10:36:52;;;;;;;5.07;3.30;;;;;;;-143.21;52.37;70848.88;5071358;28;20232;-84
2023/06/03 10:39:20;;;;;;;5.72;3.30;;;;;;;-143.21;52.24;70846.91;5069857;28;20189;-84
2023/06/03 10:41:47;;;;;;;3.25;2.90;;;;;;;-143.21;52.15;70848.88;5070075;28;20296;-84
2023/06/03 10:44:16;;;;;;;5.68;2.95;;;;;;;-143.21;52.22;70827.06;5069269;28;20201;-82
2023/06/03 10:46:54;;;;;;;5.35;2.90;;;;;;;-143.21;51.34;70807.25;5066372;28;20274;-83
2023/06/03 10:49:26;;;;;;;3.42;3.13;;;;;;;-143.21;50.95;70793.38;5067340;28;20204;-84
2023/06/03 10:52:23;;;;;;;5.10;3.50;;;;;;;-143.21;51.28;70759.69;5069434;28;20738;-84
2023/06/03 10:55:07;;;;;;;4.38;3.25;;;;;;;-143.21;50.07;70743.81;5068529;28;20699;-84
2023/06/03 10:57:38;;;;;;;5.57;3.10;;;;;;;-143.21;50.25;70739.84;5069823;28;20293;-84
2023/06/03 11:00:06;;;;;;;4.53;3.10;;;;;;;-143.21;50.54;70731.94;5069048;28;20620;-84
2023/06/03 11:03:06;;;;;;;6.07;3.20;;;;;;;-143.21;50.51;70735.91;5069062;28;20209;-84
2023/06/03 11:05:34;;;;;;;3.97;2.92;;;;;;;-143.21;49.63;70739.84;5070331;28;20749;-83
2023/06/03 11:08:01;;;;;;;3.22;2.90;;;;;;;-143.21;50.36;70745.81;5069976;28;20228;-84
2023/06/03 11:10:43;;;;;;;4.18;3.10;;;;;;;-143.21;49.22;70759.69;5069700;28;20200;-83
2023/06/03 11:13:12;;;;;;;5.85;3.10;;;;;;;-143.21;48.34;70775.53;5069147;28;20209;-83
2023/06/03 11:15:58;;;;;;;5.97;3.25;;;;;;;-143.21;49.40;70777.53;5069603;28;20337;-83
2023/06/03 11:18:24;;;;;;;5.60;3.13;;;;;;;-143.21;48.68;70753.72;5069564;28;20207;-83
2023/06/03 11:20:52;;;;;;;5.60;3.10;;;;;;;-143.21;48.79;70737.88;5068255;28;20205;-83
2023/06/03 11:23:41;;;;;;;3.38;2.72;;;;;;;-143.21;49.68;70708.16;5068050;28;20577;-84